• Join FlightAware (Why Join?)
  • Login
  • US Flag 
01:22AM EDT


 

Airport Tracker/Info


-or-


 

Live Flight TrackerFlight Track Log ✈ N728CA ✈ 19-Feb-2012 ✈ KALB - KBTP

Flight Track Log - Related Links

Times and Time Zones

All times are in EST time to prevent confusion due to time zone crossing. See the N728CA flight status page for this flight to view local times or setup timezone preferences in your user account.

Time Position Orientation Groundspeed Altitude Reporting Facility
EST Latitude Longitude Course Direction KTS MPH feet Rate Location/Type
06:18PM 42.7714 -73.8061 22° Northeast 145 167 900  Level Boston Center
06:18PM 42.7758 -73.8036 311° West 144 166 1,000 660 Climbing Boston Center
06:20PM 42.7961 -73.8350 224° Southwest 138 159 1,700 660 Climbing Boston Center
06:21PM 42.7686 -73.8711 230° Southwest 150 173 2,400 660 Climbing Boston Center
06:22PM 42.7389 -73.9186 238° Southwest 152 175 3,100 600 Climbing Boston Center
06:23PM 42.7172 -73.9661 236° Southwest 153 176 3,700 600 Climbing Boston Center
06:24PM 42.6894 -74.0219 234° Southwest 160 184 4,400 660 Climbing Boston Center
06:25PM 42.6617 -74.0747 231° Southwest 166 191 5,100 720 Climbing Boston Center
06:26PM 42.6317 -74.1247 224° Southwest 167 192 5,900 720 Climbing Boston Center
06:26PM 42.6275 -74.1303 232° Southwest 170 196 6,000 660 Climbing Boston Center
06:27PM 42.6039 -74.1719 234° Southwest 170 196 6,700 720 Climbing Boston Center
06:28PM 42.5761 -74.2247 236° Southwest 170 196 7,500 600 Climbing Boston Center
06:29PM 42.5522 -74.2719 233° Southwest 170 196 8,000 240 Climbing Boston Center
06:30PM 42.5181 -74.3331 235° Southwest 180 207 8,000  Level Boston Center
06:31PM 42.4922 -74.3831 234° Southwest 180 207 8,000  Level Boston Center
06:32PM 42.4597 -74.4439 241° Southwest 185 213 8,000  Level Boston Center
06:33PM 42.4381 -74.4967 252° West 185 213 8,000  Level Boston Center
06:34PM 42.4222 -74.5636 249° West 172 198 8,000  Level Boston Center
06:35PM 42.4067 -74.6194 251° West 172 198 8,000  Level Boston Center
06:36PM 42.3886 -74.6889 249° West 172 198 8,000  Level Boston Center
06:37PM 42.3728 -74.7447 252° West 178 205 8,000  Level Boston Center
06:38PM 42.3569 -74.8114 250° West 184 212 8,000  Level Boston Center
06:39PM 42.3389 -74.8781 250° West 189 217 8,000  Level Boston Center
07:06PM 41.8464 -76.6125 248° West 186 214 8,000  Level New York Center
07:07PM 41.8264 -76.6775 252° West 186 214 8,000  Level New York Center
07:08PM 41.8108 -76.7428 248° West 186 214 8,000  Level New York Center
07:09PM 41.7908 -76.8078 247° West 186 214 8,000  Level New York Center
07:10PM 41.7708 -76.8700 250° West 186 214 8,000  Level New York Center
07:11PM 41.7531 -76.9350 248° West 186 214 8,000  Level New York Center
07:12PM 41.7328 -77.0028 249° West 186 214 8,000  Level New York Center
07:13PM 41.7150 -77.0650 250° West 186 214 8,000  Level New York Center
07:15PM 41.6786 -77.1967 248° West 200 230 8,000  Level Cleveland Center
07:16PM 41.6597 -77.2589 248° West 188 216 8,000  Level Cleveland Center
07:17PM 41.6406 -77.3239 244° Southwest 188 216 8,000  Level Cleveland Center
07:18PM 41.6156 -77.3917 249° West 193 222 8,000  Level Cleveland Center
07:19PM 41.5964 -77.4594 248° West 198 228 8,000 -60 Level Cleveland Center
07:20PM 41.5772 -77.5214 246° West 198 228 7,900 -60 Descending Cleveland Center
07:21PM 41.5561 -77.5861 249° West 193 222 7,900  Level Cleveland Center
07:22PM 41.5369 -77.6536 248° West 193 222 7,900  Level Cleveland Center
07:23PM 41.5178 -77.7156 247° West 193 222 7,900  Level Cleveland Center
07:24PM 41.4964 -77.7831 246° West 193 222 7,900  Level Cleveland Center
07:25PM 41.4750 -77.8478 248° West 193 222 7,900  Level Cleveland Center
07:26PM 41.4556 -77.9122 245° Southwest 193 222 7,900  Level Cleveland Center
07:27PM 41.4342 -77.9742 248° West 193 222 7,900  Level Cleveland Center
07:28PM 41.4128 -78.0442 246° West 193 222 7,900  Level Cleveland Center
07:29PM 41.3914 -78.1086 247° West 193 222 7,900  Level Cleveland Center
07:30PM 41.3717 -78.1703 246° West 193 222 7,900  Level Cleveland Center
07:31PM 41.3522 -78.2292 248° West 193 222 7,900  Level Cleveland Center
07:32PM 41.3325 -78.2933 246° West 193 222 7,900  Level Cleveland Center
07:33PM 41.3108 -78.3578 248° West 193 222 7,900  Level Cleveland Center
07:34PM 41.2914 -78.4219 246° West 193 222 7,900  Level Cleveland Center
07:35PM 41.2697 -78.4864 246° West 193 222 7,900  Level Cleveland Center
07:36PM 41.2478 -78.5506 246° West 193 222 7,900  Level Cleveland Center
07:37PM 41.2261 -78.6147 248° West 193 222 7,900  Level Cleveland Center
07:38PM 41.2061 -78.6789 246° West 193 222 7,900  Level Cleveland Center
07:39PM 41.1844 -78.7428 246° West 193 222 7,900  Level Cleveland Center
07:40PM 41.1625 -78.8069 248° West 193 222 7,900  Level Cleveland Center
07:41PM 41.1406 -78.8792 244° Southwest 193 222 7,900  Level Cleveland Center
07:42PM 41.1225 -78.9292 246° West 193 222 7,900  Level Cleveland Center
07:43PM 41.0986 -78.9989 245° Southwest 193 222 7,900  Level Cleveland Center
07:44PM 41.0764 -79.0628 247° West 193 222 7,900  Level Cleveland Center
07:45PM 41.0564 -79.1264 247° West 193 222 7,900  Level Cleveland Center
07:46PM 41.0364 -79.1903 245° Southwest 193 222 7,900  Level Cleveland Center
07:47PM 41.0142 -79.2539 246° West 193 222 7,900 -240 Level Cleveland Center
07:48PM 40.9919 -79.3206 246° West 193 222 7,500 -540 Descending Cleveland Center
07:49PM 40.9678 -79.3925 246° West 198 228 6,900 -600 Descending Cleveland Center
07:50PM 40.9456 -79.4589 246° West 198 228 6,300 -600 Descending Cleveland Center
07:51PM 40.9233 -79.5253 247° West 198 228 5,700 -600 Descending Cleveland Center
07:52PM 40.9008 -79.5942 246° West 198 228 5,200 -360 Descending Cleveland Center
07:53PM 40.8806 -79.6550 243° Southwest 193 222 5,000 -120 Descending Cleveland Center
07:54PM 40.8603 -79.7072 244° Southwest 181 208 5,000 -60 Level Cleveland Center
07:55PM 40.8417 -79.7569 244° Southwest 170 196 4,900 -240 Descending Cleveland Center
07:56PM 40.8192 -79.8178 246° West 165 190 4,600  Descending Cleveland Center
07:57PM 40.7989 -79.8781 246° West 165 190 5,000 180 Climbing Cleveland Center
07:58PM 40.7783 -79.9386 245° Southwest 165 190 5,000  Level Cleveland Center
07:59PM 40.7578 -79.9964 244° Southwest 165 190 5,000  Level Cleveland Center
08:00PM 40.7494 -80.0186 244° Southwest 165 190 5,000  Level Cleveland Center